sensor_id;sensor_type;location;lat;lon;timestamp;P1;durP1;ratioP1;P2;durP2;ratioP2
21987;SDS011;11158;53.404;-1.510;2023-03-18T00:00:08;13.80;;;4.97;;
21987;SDS011;11158;53.404;-1.510;2023-03-18T00:02:54;12.75;;;5.03;;
21987;SDS011;11158;53.404;-1.510;2023-03-18T00:05:38;17.95;;;5.32;;
21987;SDS011;11158;53.404;-1.510;2023-03-18T00:08:22;10.10;;;5.10;;
21987;SDS011;11158;53.404;-1.510;2023-03-18T00:11:07;13.60;;;5.20;;
21987;SDS011;11158;53.404;-1.510;2023-03-18T00:13:54;17.83;;;5.88;;
21987;SDS011;11158;53.404;-1.510;2023-03-18T00:16:38;15.80;;;5.90;;
21987;SDS011;11158;53.404;-1.510;2023-03-18T00:19:23;13.48;;;6.20;;
21987;SDS011;11158;53.404;-1.510;2023-03-18T00:22:10;16.98;;;8.77;;
21987;SDS011;11158;53.404;-1.510;2023-03-18T00:24:55;17.55;;;8.02;;
21987;SDS011;11158;53.404;-1.510;2023-03-18T00:27:39;19.95;;;7.30;;
21987;SDS011;11158;53.404;-1.510;2023-03-18T00:30:24;19.85;;;6.95;;
21987;SDS011;11158;53.404;-1.510;2023-03-18T00:33:09;13.32;;;6.30;;
21987;SDS011;11158;53.404;-1.510;2023-03-18T00:35:54;11.82;;;5.85;;
21987;SDS011;11158;53.404;-1.510;2023-03-18T00:38:39;15.35;;;6.43;;
21987;SDS011;11158;53.404;-1.510;2023-03-18T00:41:28;15.32;;;5.68;;
21987;SDS011;11158;53.404;-1.510;2023-03-18T00:44:15;14.95;;;6.05;;
21987;SDS011;11158;53.404;-1.510;2023-03-18T00:47:00;16.35;;;6.00;;
21987;SDS011;11158;53.404;-1.510;2023-03-18T00:49:44;15.32;;;6.28;;
21987;SDS011;11158;53.404;-1.510;2023-03-18T00:52:28;13.52;;;6.40;;
21987;SDS011;11158;53.404;-1.510;2023-03-18T00:55:13;13.18;;;6.10;;
21987;SDS011;11158;53.404;-1.510;2023-03-18T00:57:58;15.98;;;7.18;;
21987;SDS011;11158;53.404;-1.510;2023-03-18T01:00:42;12.60;;;6.22;;
21987;SDS011;11158;53.404;-1.510;2023-03-18T01:03:26;13.18;;;6.00;;
21987;SDS011;11158;53.404;-1.510;2023-03-18T01:06:10;14.90;;;5.85;;
21987;SDS011;11158;53.404;-1.510;2023-03-18T01:08:57;11.50;;;6.35;;
21987;SDS011;11158;53.404;-1.510;2023-03-18T01:11:41;12.13;;;4.85;;
21987;SDS011;11158;53.404;-1.510;2023-03-18T01:14:25;11.23;;;6.25;;
21987;SDS011;11158;53.404;-1.510;2023-03-18T01:17:10;15.32;;;6.47;;
21987;SDS011;11158;53.404;-1.510;2023-03-18T01:19:54;11.63;;;6.07;;
21987;SDS011;11158;53.404;-1.510;2023-03-18T01:22:39;14.55;;;5.43;;
21987;SDS011;11158;53.404;-1.510;2023-03-18T01:25:26;7.95;;;4.68;;
21987;SDS011;11158;53.404;-1.510;2023-03-18T01:28:11;13.30;;;5.07;;
21987;SDS011;11158;53.404;-1.510;2023-03-18T01:30:57;11.00;;;5.00;;
21987;SDS011;11158;53.404;-1.510;2023-03-18T01:33:41;11.00;;;5.13;;
21987;SDS011;11158;53.404;-1.510;2023-03-18T01:36:25;17.05;;;5.57;;
21987;SDS011;11158;53.404;-1.510;2023-03-18T01:39:11;10.35;;;5.60;;
21987;SDS011;11158;53.404;-1.510;2023-03-18T01:41:55;16.48;;;5.85;;
21987;SDS011;11158;53.404;-1.510;2023-03-18T01:44:40;17.25;;;6.07;;
21987;SDS011;11158;53.404;-1.510;2023-03-18T01:47:25;16.10;;;5.82;;
21987;SDS011;11158;53.404;-1.510;2023-03-18T01:50:09;14.60;;;5.10;;
21987;SDS011;11158;53.404;-1.510;2023-03-18T01:52:56;13.70;;;5.30;;
21987;SDS011;11158;53.404;-1.510;2023-03-18T01:55:43;13.30;;;5.47;;
21987;SDS011;11158;53.404;-1.510;2023-03-18T01:58:32;15.93;;;5.85;;
21987;SDS011;11158;53.404;-1.510;2023-03-18T02:04:10;13.25;;;5.50;;
21987;SDS011;11158;53.404;-1.510;2023-03-18T02:06:55;12.00;;;5.20;;
21987;SDS011;11158;53.404;-1.510;2023-03-18T02:09:41;16.42;;;6.53;;
21987;SDS011;11158;53.404;-1.510;2023-03-18T02:12:30;9.35;;;5.18;;
21987;SDS011;11158;53.404;-1.510;2023-03-18T02:15:17;17.50;;;6.47;;
21987;SDS011;11158;53.404;-1.510;2023-03-18T02:18:09;13.13;;;6.90;;
21987;SDS011;11158;53.404;-1.510;2023-03-18T02:24:14;13.18;;;5.25;;
21987;SDS011;11158;53.404;-1.510;2023-03-18T02:27:24;15.80;;;6.72;;
21987;SDS011;11158;53.404;-1.510;2023-03-18T02:30:15;14.85;;;6.78;;
21987;SDS011;11158;53.404;-1.510;2023-03-18T02:33:04;12.15;;;6.78;;
21987;SDS011;11158;53.404;-1.510;2023-03-18T02:35:51;14.50;;;7.57;;
21987;SDS011;11158;53.404;-1.510;2023-03-18T02:38:42;13.13;;;7.40;;
21987;SDS011;11158;53.404;-1.510;2023-03-18T02:41:29;18.20;;;8.13;;
21987;SDS011;11158;53.404;-1.510;2023-03-18T02:44:16;16.70;;;7.82;;
21987;SDS011;11158;53.404;-1.510;2023-03-18T02:47:07;23.50;;;7.80;;
21987;SDS011;11158;53.404;-1.510;2023-03-18T02:49:56;11.70;;;7.22;;
21987;SDS011;11158;53.404;-1.510;2023-03-18T02:52:40;20.90;;;7.57;;
21987;SDS011;11158;53.404;-1.510;2023-03-18T02:55:24;17.77;;;7.43;;
21987;SDS011;11158;53.404;-1.510;2023-03-18T02:58:08;14.52;;;7.32;;
21987;SDS011;11158;53.404;-1.510;2023-03-18T03:00:53;14.13;;;8.00;;
21987;SDS011;11158;53.404;-1.510;2023-03-18T03:03:38;10.27;;;7.03;;
21987;SDS011;11158;53.404;-1.510;2023-03-18T03:06:22;13.77;;;7.40;;
21987;SDS011;11158;53.404;-1.510;2023-03-18T03:09:07;17.50;;;8.15;;
21987;SDS011;11158;53.404;-1.510;2023-03-18T03:11:56;21.67;;;8.60;;
21987;SDS011;11158;53.404;-1.510;2023-03-18T03:14:40;19.05;;;8.45;;
21987;SDS011;11158;53.404;-1.510;2023-03-18T03:17:24;14.30;;;7.40;;
21987;SDS011;11158;53.404;-1.510;2023-03-18T03:20:08;15.95;;;8.73;;
21987;SDS011;11158;53.404;-1.510;2023-03-18T03:22:53;19.20;;;8.48;;
21987;SDS011;11158;53.404;-1.510;2023-03-18T03:25:38;11.38;;;7.40;;
21987;SDS011;11158;53.404;-1.510;2023-03-18T03:28:23;15.95;;;7.80;;
21987;SDS011;11158;53.404;-1.510;2023-03-18T03:31:07;16.33;;;8.80;;
21987;SDS011;11158;53.404;-1.510;2023-03-18T03:33:53;13.95;;;8.15;;
21987;SDS011;11158;53.404;-1.510;2023-03-18T03:36:38;14.43;;;7.22;;
21987;SDS011;11158;53.404;-1.510;2023-03-18T03:39:22;14.65;;;7.90;;
21987;SDS011;11158;53.404;-1.510;2023-03-18T03:42:07;11.18;;;6.10;;
21987;SDS011;11158;53.404;-1.510;2023-03-18T03:44:51;12.73;;;7.72;;
21987;SDS011;11158;53.404;-1.510;2023-03-18T03:47:35;10.38;;;6.55;;
21987;SDS011;11158;53.404;-1.510;2023-03-18T03:50:19;10.23;;;5.93;;
21987;SDS011;11158;53.404;-1.510;2023-03-18T03:53:04;7.80;;;6.05;;
21987;SDS011;11158;53.404;-1.510;2023-03-18T03:55:49;11.85;;;6.47;;
21987;SDS011;11158;53.404;-1.510;2023-03-18T03:58:35;10.80;;;5.57;;
21987;SDS011;11158;53.404;-1.510;2023-03-18T04:01:19;14.75;;;6.25;;
21987;SDS011;11158;53.404;-1.510;2023-03-18T04:04:03;11.52;;;5.05;;
21987;SDS011;11158;53.404;-1.510;2023-03-18T04:06:48;12.13;;;6.22;;
21987;SDS011;11158;53.404;-1.510;2023-03-18T04:09:32;9.77;;;5.85;;
21987;SDS011;11158;53.404;-1.510;2023-03-18T04:12:17;9.65;;;5.38;;
21987;SDS011;11158;53.404;-1.510;2023-03-18T04:15:02;8.65;;;5.18;;
21987;SDS011;11158;53.404;-1.510;2023-03-18T04:17:47;12.23;;;5.88;;
21987;SDS011;11158;53.404;-1.510;2023-03-18T04:20:33;10.50;;;6.63;;
21987;SDS011;11158;53.404;-1.510;2023-03-18T04:23:18;8.73;;;5.90;;
21987;SDS011;11158;53.404;-1.510;2023-03-18T04:26:03;11.80;;;6.38;;
21987;SDS011;11158;53.404;-1.510;2023-03-18T04:28:48;11.57;;;6.93;;
21987;SDS011;11158;53.404;-1.510;2023-03-18T04:31:32;11.90;;;6.60;;
21987;SDS011;11158;53.404;-1.510;2023-03-18T04:34:17;14.57;;;7.18;;
21987;SDS011;11158;53.404;-1.510;2023-03-18T04:37:01;14.32;;;6.80;;
21987;SDS011;11158;53.404;-1.510;2023-03-18T04:39:46;17.33;;;6.90;;
21987;SDS011;11158;53.404;-1.510;2023-03-18T04:42:31;16.50;;;6.63;;
21987;SDS011;11158;53.404;-1.510;2023-03-18T04:45:15;11.32;;;6.18;;
21987;SDS011;11158;53.404;-1.510;2023-03-18T04:48:00;15.73;;;7.75;;
21987;SDS011;11158;53.404;-1.510;2023-03-18T04:50:44;15.85;;;6.65;;
21987;SDS011;11158;53.404;-1.510;2023-03-18T04:53:29;10.63;;;6.57;;
21987;SDS011;11158;53.404;-1.510;2023-03-18T04:56:14;12.68;;;7.05;;
21987;SDS011;11158;53.404;-1.510;2023-03-18T04:58:58;13.02;;;6.45;;
21987;SDS011;11158;53.404;-1.510;2023-03-18T05:01:42;12.10;;;5.72;;
21987;SDS011;11158;53.404;-1.510;2023-03-18T05:04:26;16.60;;;6.72;;
21987;SDS011;11158;53.404;-1.510;2023-03-18T05:07:14;13.23;;;5.93;;
21987;SDS011;11158;53.404;-1.510;2023-03-18T05:09:58;10.38;;;5.90;;
21987;SDS011;11158;53.404;-1.510;2023-03-18T05:12:43;9.35;;;6.65;;
21987;SDS011;11158;53.404;-1.510;2023-03-18T05:15:27;11.63;;;6.20;;
21987;SDS011;11158;53.404;-1.510;2023-03-18T05:18:12;11.50;;;5.82;;
21987;SDS011;11158;53.404;-1.510;2023-03-18T05:20:56;10.02;;;5.72;;
21987;SDS011;11158;53.404;-1.510;2023-03-18T05:23:41;11.95;;;6.50;;
21987;SDS011;11158;53.404;-1.510;2023-03-18T05:26:26;13.23;;;6.97;;
21987;SDS011;11158;53.404;-1.510;2023-03-18T05:29:10;12.25;;;6.13;;
21987;SDS011;11158;53.404;-1.510;2023-03-18T05:31:54;12.98;;;6.20;;
21987;SDS011;11158;53.404;-1.510;2023-03-18T05:34:39;14.13;;;7.07;;
21987;SDS011;11158;53.404;-1.510;2023-03-18T05:37:23;12.32;;;7.15;;
21987;SDS011;11158;53.404;-1.510;2023-03-18T05:40:08;14.77;;;6.95;;
21987;SDS011;11158;53.404;-1.510;2023-03-18T05:42:54;14.15;;;7.95;;
21987;SDS011;11158;53.404;-1.510;2023-03-18T05:45:38;11.02;;;7.20;;
21987;SDS011;11158;53.404;-1.510;2023-03-18T05:48:23;13.50;;;7.35;;
21987;SDS011;11158;53.404;-1.510;2023-03-18T05:51:08;16.77;;;7.47;;
21987;SDS011;11158;53.404;-1.510;2023-03-18T05:53:52;11.93;;;6.82;;
21987;SDS011;11158;53.404;-1.510;2023-03-18T05:56:36;14.40;;;7.38;;
21987;SDS011;11158;53.404;-1.510;2023-03-18T05:59:20;10.35;;;6.88;;
21987;SDS011;11158;53.404;-1.510;2023-03-18T06:02:06;12.60;;;8.02;;
21987;SDS011;11158;53.404;-1.510;2023-03-18T06:04:50;12.93;;;7.32;;
21987;SDS011;11158;53.404;-1.510;2023-03-18T06:07:35;15.63;;;7.88;;
21987;SDS011;11158;53.404;-1.510;2023-03-18T06:10:20;12.25;;;7.88;;
21987;SDS011;11158;53.404;-1.510;2023-03-18T06:13:05;14.77;;;7.93;;
21987;SDS011;11158;53.404;-1.510;2023-03-18T06:15:57;12.18;;;7.47;;
21987;SDS011;11158;53.404;-1.510;2023-03-18T06:18:42;16.45;;;7.63;;
21987;SDS011;11158;53.404;-1.510;2023-03-18T06:21:27;10.20;;;6.47;;
21987;SDS011;11158;53.404;-1.510;2023-03-18T06:24:14;12.82;;;6.72;;
21987;SDS011;11158;53.404;-1.510;2023-03-18T06:26:58;9.40;;;5.55;;
21987;SDS011;11158;53.404;-1.510;2023-03-18T06:29:42;15.85;;;7.85;;
21987;SDS011;11158;53.404;-1.510;2023-03-18T06:32:27;12.95;;;7.78;;
21987;SDS011;11158;53.404;-1.510;2023-03-18T06:35:12;15.70;;;6.28;;
21987;SDS011;11158;53.404;-1.510;2023-03-18T06:37:58;16.58;;;6.40;;
21987;SDS011;11158;53.404;-1.510;2023-03-18T06:40:42;12.50;;;5.82;;
21987;SDS011;11158;53.404;-1.510;2023-03-18T06:43:27;11.30;;;5.60;;
21987;SDS011;11158;53.404;-1.510;2023-03-18T06:46:11;12.70;;;7.20;;
21987;SDS011;11158;53.404;-1.510;2023-03-18T06:48:57;13.35;;;7.30;;
21987;SDS011;11158;53.404;-1.510;2023-03-18T06:51:41;13.30;;;7.38;;
21987;SDS011;11158;53.404;-1.510;2023-03-18T06:54:26;10.93;;;6.82;;
21987;SDS011;11158;53.404;-1.510;2023-03-18T06:57:11;10.45;;;6.82;;
21987;SDS011;11158;53.404;-1.510;2023-03-18T06:59:56;14.90;;;7.80;;
21987;SDS011;11158;53.404;-1.510;2023-03-18T07:02:41;13.98;;;7.57;;
21987;SDS011;11158;53.404;-1.510;2023-03-18T07:05:26;12.70;;;7.35;;
21987;SDS011;11158;53.404;-1.510;2023-03-18T07:08:11;15.90;;;7.80;;
21987;SDS011;11158;53.404;-1.510;2023-03-18T07:10:55;11.10;;;7.55;;
21987;SDS011;11158;53.404;-1.510;2023-03-18T07:13:39;14.07;;;8.52;;
21987;SDS011;11158;53.404;-1.510;2023-03-18T07:16:24;14.60;;;8.13;;
21987;SDS011;11158;53.404;-1.510;2023-03-18T07:19:09;19.08;;;8.27;;
21987;SDS011;11158;53.404;-1.510;2023-03-18T07:21:54;11.70;;;7.20;;
21987;SDS011;11158;53.404;-1.510;2023-03-18T07:24:38;13.40;;;7.82;;
21987;SDS011;11158;53.404;-1.510;2023-03-18T07:27:23;14.40;;;7.82;;
21987;SDS011;11158;53.404;-1.510;2023-03-18T07:30:07;13.25;;;7.13;;
21987;SDS011;11158;53.404;-1.510;2023-03-18T07:32:55;12.88;;;6.65;;
21987;SDS011;11158;53.404;-1.510;2023-03-18T07:35:40;14.65;;;6.75;;
21987;SDS011;11158;53.404;-1.510;2023-03-18T07:38:24;15.35;;;7.32;;
21987;SDS011;11158;53.404;-1.510;2023-03-18T07:41:08;9.38;;;5.88;;
21987;SDS011;11158;53.404;-1.510;2023-03-18T07:43:52;9.90;;;5.57;;
21987;SDS011;11158;53.404;-1.510;2023-03-18T07:46:37;11.48;;;6.38;;
21987;SDS011;11158;53.404;-1.510;2023-03-18T07:49:22;12.10;;;6.60;;
21987;SDS011;11158;53.404;-1.510;2023-03-18T07:52:07;11.30;;;6.50;;
21987;SDS011;11158;53.404;-1.510;2023-03-18T07:54:52;9.40;;;6.05;;
21987;SDS011;11158;53.404;-1.510;2023-03-18T07:57:36;10.68;;;5.78;;
21987;SDS011;11158;53.404;-1.510;2023-03-18T08:00:21;10.18;;;4.78;;
21987;SDS011;11158;53.404;-1.510;2023-03-18T08:03:06;11.65;;;4.93;;
21987;SDS011;11158;53.404;-1.510;2023-03-18T08:05:50;9.65;;;5.57;;
21987;SDS011;11158;53.404;-1.510;2023-03-18T08:08:34;9.77;;;5.07;;
21987;SDS011;11158;53.404;-1.510;2023-03-18T08:11:18;15.00;;;5.22;;
21987;SDS011;11158;53.404;-1.510;2023-03-18T08:14:03;13.88;;;4.57;;
21987;SDS011;11158;53.404;-1.510;2023-03-18T08:16:47;6.85;;;4.32;;
21987;SDS011;11158;53.404;-1.510;2023-03-18T08:19:32;9.68;;;4.22;;
21987;SDS011;11158;53.404;-1.510;2023-03-18T08:22:16;13.45;;;4.00;;
21987;SDS011;11158;53.404;-1.510;2023-03-18T08:25:00;10.57;;;3.72;;
21987;SDS011;11158;53.404;-1.510;2023-03-18T08:27:45;6.20;;;3.20;;
21987;SDS011;11158;53.404;-1.510;2023-03-18T08:30:29;7.38;;;3.72;;
21987;SDS011;11158;53.404;-1.510;2023-03-18T08:33:15;7.93;;;3.55;;
21987;SDS011;11158;53.404;-1.510;2023-03-18T08:35:59;6.20;;;2.90;;
21987;SDS011;11158;53.404;-1.510;2023-03-18T08:38:44;4.93;;;2.92;;
21987;SDS011;11158;53.404;-1.510;2023-03-18T08:41:29;11.10;;;3.05;;
21987;SDS011;11158;53.404;-1.510;2023-03-18T08:44:16;7.38;;;3.30;;
21987;SDS011;11158;53.404;-1.510;2023-03-18T08:47:00;8.52;;;3.03;;
21987;SDS011;11158;53.404;-1.510;2023-03-18T08:49:44;7.70;;;2.80;;
21987;SDS011;11158;53.404;-1.510;2023-03-18T08:52:29;8.20;;;3.13;;
21987;SDS011;11158;53.404;-1.510;2023-03-18T08:55:13;5.47;;;2.88;;
21987;SDS011;11158;53.404;-1.510;2023-03-18T08:57:59;6.65;;;2.78;;
21987;SDS011;11158;53.404;-1.510;2023-03-18T09:00:43;7.30;;;2.78;;
21987;SDS011;11158;53.404;-1.510;2023-03-18T09:03:27;6.53;;;2.45;;
21987;SDS011;11158;53.404;-1.510;2023-03-18T09:06:12;4.90;;;1.90;;
21987;SDS011;11158;53.404;-1.510;2023-03-18T09:08:56;11.40;;;2.60;;
21987;SDS011;11158;53.404;-1.510;2023-03-18T09:11:41;6.68;;;2.38;;
21987;SDS011;11158;53.404;-1.510;2023-03-18T09:14:25;6.68;;;2.45;;
21987;SDS011;11158;53.404;-1.510;2023-03-18T09:17:10;8.25;;;2.50;;
21987;SDS011;11158;53.404;-1.510;2023-03-18T09:19:54;5.47;;;2.17;;
21987;SDS011;11158;53.404;-1.510;2023-03-18T09:22:40;5.38;;;2.08;;
21987;SDS011;11158;53.404;-1.510;2023-03-18T09:25:25;5.95;;;2.00;;
21987;SDS011;11158;53.404;-1.510;2023-03-18T09:28:10;6.30;;;2.35;;
21987;SDS011;11158;53.404;-1.510;2023-03-18T09:30:54;4.72;;;1.85;;
21987;SDS011;11158;53.404;-1.510;2023-03-18T09:33:38;5.30;;;2.70;;
21987;SDS011;11158;53.404;-1.510;2023-03-18T09:36:24;3.95;;;1.92;;
21987;SDS011;11158;53.404;-1.510;2023-03-18T09:39:08;3.30;;;2.33;;
21987;SDS011;11158;53.404;-1.510;2023-03-18T09:44:59;4.57;;;1.40;;
21987;SDS011;11158;53.404;-1.510;2023-03-18T09:48:00;4.18;;;1.90;;
21987;SDS011;11158;53.404;-1.510;2023-03-18T09:54:03;2.95;;;1.33;;
21987;SDS011;11158;53.404;-1.510;2023-03-18T09:59:45;3.30;;;1.45;;
21987;SDS011;11158;53.404;-1.510;2023-03-18T10:02:39;2.55;;;1.40;;
21987;SDS011;11158;53.404;-1.510;2023-03-18T10:05:32;2.83;;;1.63;;
21987;SDS011;11158;53.404;-1.510;2023-03-18T10:11:21;4.55;;;1.92;;
21987;SDS011;11158;53.404;-1.510;2023-03-18T10:17:26;2.80;;;1.33;;
21987;SDS011;11158;53.404;-1.510;2023-03-18T10:29:35;2.33;;;1.35;;
21987;SDS011;11158;53.404;-1.510;2023-03-18T10:38:30;1.92;;;0.93;;
21987;SDS011;11158;53.404;-1.510;2023-03-18T10:41:21;3.00;;;1.02;;
21987;SDS011;11158;53.404;-1.510;2023-03-18T10:44:23;2.67;;;1.23;;
21987;SDS011;11158;53.404;-1.510;2023-03-18T10:47:21;4.22;;;1.30;;
21987;SDS011;11158;53.404;-1.510;2023-03-18T10:50:33;3.78;;;1.20;;
21987;SDS011;11158;53.404;-1.510;2023-03-18T10:53:32;1.33;;;0.90;;
21987;SDS011;11158;53.404;-1.510;2023-03-18T10:56:21;2.85;;;1.13;;
21987;SDS011;11158;53.404;-1.510;2023-03-18T10:59:13;4.00;;;0.95;;
21987;SDS011;11158;53.404;-1.510;2023-03-18T11:02:05;3.42;;;1.00;;
21987;SDS011;11158;53.404;-1.510;2023-03-18T11:05:03;3.70;;;1.23;;
21987;SDS011;11158;53.404;-1.510;2023-03-18T11:08:00;1.67;;;1.25;;
21987;SDS011;11158;53.404;-1.510;2023-03-18T11:10:47;3.83;;;1.23;;
21987;SDS011;11158;53.404;-1.510;2023-03-18T11:13:32;2.55;;;0.93;;
21987;SDS011;11158;53.404;-1.510;2023-03-18T11:16:28;5.32;;;1.40;;
21987;SDS011;11158;53.404;-1.510;2023-03-18T11:22:31;2.75;;;1.00;;
21987;SDS011;11158;53.404;-1.510;2023-03-18T11:25:20;2.42;;;0.93;;
21987;SDS011;11158;53.404;-1.510;2023-03-18T11:28:12;4.03;;;1.25;;
21987;SDS011;11158;53.404;-1.510;2023-03-18T11:31:04;2.90;;;1.10;;
21987;SDS011;11158;53.404;-1.510;2023-03-18T11:33:49;4.22;;;1.05;;
21987;SDS011;11158;53.404;-1.510;2023-03-18T11:36:40;2.88;;;0.93;;
21987;SDS011;11158;53.404;-1.510;2023-03-18T11:39:25;3.45;;;0.85;;
21987;SDS011;11158;53.404;-1.510;2023-03-18T11:42:16;3.85;;;0.75;;
21987;SDS011;11158;53.404;-1.510;2023-03-18T11:45:07;1.30;;;0.60;;
21987;SDS011;11158;53.404;-1.510;2023-03-18T11:48:16;1.60;;;0.50;;
21987;SDS011;11158;53.404;-1.510;2023-03-18T11:51:38;1.60;;;0.80;;
21987;SDS011;11158;53.404;-1.510;2023-03-18T11:57:35;3.80;;;0.80;;
21987;SDS011;11158;53.404;-1.510;2023-03-18T12:03:52;1.25;;;0.73;;
21987;SDS011;11158;53.404;-1.510;2023-03-18T12:06:46;2.83;;;0.90;;
21987;SDS011;11158;53.404;-1.510;2023-03-18T12:27:51;1.00;;;0.50;;
21987;SDS011;11158;53.404;-1.510;2023-03-18T12:36:45;3.60;;;1.10;;
21987;SDS011;11158;53.404;-1.510;2023-03-18T12:42:37;2.15;;;1.35;;
21987;SDS011;11158;53.404;-1.510;2023-03-18T12:45:26;3.70;;;1.08;;
21987;SDS011;11158;53.404;-1.510;2023-03-18T12:48:28;1.42;;;0.75;;
21987;SDS011;11158;53.404;-1.510;2023-03-18T12:51:17;3.97;;;1.27;;
21987;SDS011;11158;53.404;-1.510;2023-03-18T12:57:00;2.28;;;0.60;;
21987;SDS011;11158;53.404;-1.510;2023-03-18T12:59:58;3.10;;;0.80;;
21987;SDS011;11158;53.404;-1.510;2023-03-18T13:09:12;2.78;;;1.00;;
21987;SDS011;11158;53.404;-1.510;2023-03-18T13:12:08;4.30;;;0.95;;
21987;SDS011;11158;53.404;-1.510;2023-03-18T13:15:05;2.97;;;1.00;;
21987;SDS011;11158;53.404;-1.510;2023-03-18T13:18:34;1.48;;;0.88;;
21987;SDS011;11158;53.404;-1.510;2023-03-18T13:21:33;5.10;;;1.23;;
21987;SDS011;11158;53.404;-1.510;2023-03-18T13:42:58;2.33;;;0.82;;
21987;SDS011;11158;53.404;-1.510;2023-03-18T13:45:45;3.05;;;0.90;;
21987;SDS011;11158;53.404;-1.510;2023-03-18T13:48:33;5.18;;;1.13;;
21987;SDS011;11158;53.404;-1.510;2023-03-18T13:51:19;4.22;;;1.20;;
21987;SDS011;11158;53.404;-1.510;2023-03-18T13:54:23;4.35;;;1.10;;
21987;SDS011;11158;53.404;-1.510;2023-03-18T14:00:22;2.83;;;1.20;;
21987;SDS011;11158;53.404;-1.510;2023-03-18T14:08:51;2.05;;;1.13;;
21987;SDS011;11158;53.404;-1.510;2023-03-18T14:11:36;2.90;;;1.20;;
21987;SDS011;11158;53.404;-1.510;2023-03-18T14:14:40;3.22;;;1.10;;
21987;SDS011;11158;53.404;-1.510;2023-03-18T14:20:23;4.95;;;1.00;;
21987;SDS011;11158;53.404;-1.510;2023-03-18T14:26:24;3.10;;;1.17;;
21987;SDS011;11158;53.404;-1.510;2023-03-18T14:31:57;5.53;;;1.33;;
21987;SDS011;11158;53.404;-1.510;2023-03-18T14:38:00;3.42;;;0.90;;
21987;SDS011;11158;53.404;-1.510;2023-03-18T14:40:48;2.97;;;1.33;;
21987;SDS011;11158;53.404;-1.510;2023-03-18T14:43:44;1.13;;;0.93;;
21987;SDS011;11158;53.404;-1.510;2023-03-18T14:46:38;3.47;;;1.00;;
21987;SDS011;11158;53.404;-1.510;2023-03-18T14:52:30;4.63;;;1.13;;
21987;SDS011;11158;53.404;-1.510;2023-03-18T14:55:20;3.35;;;1.27;;
21987;SDS011;11158;53.404;-1.510;2023-03-18T14:58:14;1.08;;;0.68;;
21987;SDS011;11158;53.404;-1.510;2023-03-18T15:03:49;3.92;;;1.10;;
21987;SDS011;11158;53.404;-1.510;2023-03-18T15:06:38;1.90;;;0.60;;
21987;SDS011;11158;53.404;-1.510;2023-03-18T15:09:24;3.08;;;0.82;;
21987;SDS011;11158;53.404;-1.510;2023-03-18T15:12:17;3.03;;;1.05;;
21987;SDS011;11158;53.404;-1.510;2023-03-18T15:15:14;2.30;;;1.10;;
21987;SDS011;11158;53.404;-1.510;2023-03-18T15:18:14;2.38;;;0.98;;
21987;SDS011;11158;53.404;-1.510;2023-03-18T15:21:09;4.15;;;1.50;;
21987;SDS011;11158;53.404;-1.510;2023-03-18T15:23:59;4.43;;;1.17;;
21987;SDS011;11158;53.404;-1.510;2023-03-18T15:26:54;2.03;;;0.90;;
21987;SDS011;11158;53.404;-1.510;2023-03-18T15:29:44;2.38;;;1.00;;
21987;SDS011;11158;53.404;-1.510;2023-03-18T15:32:42;1.52;;;0.60;;
21987;SDS011;11158;53.404;-1.510;2023-03-18T15:35:32;1.75;;;0.77;;
21987;SDS011;11158;53.404;-1.510;2023-03-18T15:38:17;4.28;;;1.30;;
21987;SDS011;11158;53.404;-1.510;2023-03-18T15:41:04;2.63;;;0.90;;
21987;SDS011;11158;53.404;-1.510;2023-03-18T15:43:52;4.32;;;1.40;;
21987;SDS011;11158;53.404;-1.510;2023-03-18T15:46:36;2.17;;;0.93;;
21987;SDS011;11158;53.404;-1.510;2023-03-18T15:49:24;2.50;;;0.90;;
21987;SDS011;11158;53.404;-1.510;2023-03-18T15:52:12;2.00;;;0.70;;
21987;SDS011;11158;53.404;-1.510;2023-03-18T15:54:59;2.47;;;0.60;;
21987;SDS011;11158;53.404;-1.510;2023-03-18T15:57:44;1.20;;;0.68;;
21987;SDS011;11158;53.404;-1.510;2023-03-18T16:00:29;1.23;;;0.70;;
21987;SDS011;11158;53.404;-1.510;2023-03-18T16:03:23;0.63;;;0.60;;
21987;SDS011;11158;53.404;-1.510;2023-03-18T16:06:09;1.23;;;0.80;;
21987;SDS011;11158;53.404;-1.510;2023-03-18T16:08:53;1.58;;;1.00;;
21987;SDS011;11158;53.404;-1.510;2023-03-18T16:11:38;4.30;;;1.00;;
21987;SDS011;11158;53.404;-1.510;2023-03-18T16:14:29;0.85;;;0.60;;
21987;SDS011;11158;53.404;-1.510;2023-03-18T16:17:20;0.75;;;0.60;;
21987;SDS011;11158;53.404;-1.510;2023-03-18T16:20:18;2.75;;;0.90;;
21987;SDS011;11158;53.404;-1.510;2023-03-18T16:23:05;1.05;;;0.60;;
21987;SDS011;11158;53.404;-1.510;2023-03-18T16:25:51;3.22;;;1.00;;
21987;SDS011;11158;53.404;-1.510;2023-03-18T16:28:37;1.67;;;0.70;;
21987;SDS011;11158;53.404;-1.510;2023-03-18T16:31:22;3.03;;;0.80;;
21987;SDS011;11158;53.404;-1.510;2023-03-18T16:34:13;0.88;;;0.65;;
21987;SDS011;11158;53.404;-1.510;2023-03-18T16:36:59;0.82;;;0.65;;
21987;SDS011;11158;53.404;-1.510;2023-03-18T16:39:43;3.25;;;0.90;;
21987;SDS011;11158;53.404;-1.510;2023-03-18T16:42:27;1.98;;;1.00;;
21987;SDS011;11158;53.404;-1.510;2023-03-18T16:45:18;5.22;;;1.38;;
21987;SDS011;11158;53.404;-1.510;2023-03-18T16:48:05;3.35;;;0.95;;
21987;SDS011;11158;53.404;-1.510;2023-03-18T16:50:50;3.78;;;0.90;;
21987;SDS011;11158;53.404;-1.510;2023-03-18T16:53:35;0.85;;;0.80;;
21987;SDS011;11158;53.404;-1.510;2023-03-18T16:56:19;1.90;;;1.10;;
21987;SDS011;11158;53.404;-1.510;2023-03-18T16:59:10;1.60;;;0.93;;
21987;SDS011;11158;53.404;-1.510;2023-03-18T17:01:56;3.30;;;1.52;;
21987;SDS011;11158;53.404;-1.510;2023-03-18T17:04:41;3.70;;;1.00;;
21987;SDS011;11158;53.404;-1.510;2023-03-18T17:07:25;5.13;;;0.90;;
21987;SDS011;11158;53.404;-1.510;2023-03-18T17:10:12;4.15;;;1.88;;
21987;SDS011;11158;53.404;-1.510;2023-03-18T17:12:59;5.55;;;1.23;;
21987;SDS011;11158;53.404;-1.510;2023-03-18T17:15:49;4.43;;;1.17;;
21987;SDS011;11158;53.404;-1.510;2023-03-18T17:18:33;2.95;;;1.10;;
21987;SDS011;11158;53.404;-1.510;2023-03-18T17:21:17;6.65;;;1.30;;
21987;SDS011;11158;53.404;-1.510;2023-03-18T17:24:02;2.90;;;1.20;;
21987;SDS011;11158;53.404;-1.510;2023-03-18T17:26:47;3.75;;;1.10;;
21987;SDS011;11158;53.404;-1.510;2023-03-18T17:29:33;3.33;;;1.10;;
21987;SDS011;11158;53.404;-1.510;2023-03-18T17:32:17;4.35;;;1.08;;
21987;SDS011;11158;53.404;-1.510;2023-03-18T17:35:05;3.35;;;0.93;;
21987;SDS011;11158;53.404;-1.510;2023-03-18T17:37:55;3.30;;;1.00;;
21987;SDS011;11158;53.404;-1.510;2023-03-18T17:40:40;4.32;;;1.05;;
21987;SDS011;11158;53.404;-1.510;2023-03-18T17:43:26;2.38;;;1.10;;
21987;SDS011;11158;53.404;-1.510;2023-03-18T17:46:13;3.28;;;1.10;;
21987;SDS011;11158;53.404;-1.510;2023-03-18T17:48:58;8.20;;;1.70;;
21987;SDS011;11158;53.404;-1.510;2023-03-18T17:51:42;2.33;;;1.05;;
21987;SDS011;11158;53.404;-1.510;2023-03-18T17:54:26;3.80;;;1.38;;
21987;SDS011;11158;53.404;-1.510;2023-03-18T17:57:12;2.53;;;1.48;;
21987;SDS011;11158;53.404;-1.510;2023-03-18T17:59:58;5.20;;;1.85;;
21987;SDS011;11158;53.404;-1.510;2023-03-18T18:02:42;3.80;;;1.30;;
21987;SDS011;11158;53.404;-1.510;2023-03-18T18:05:27;7.70;;;2.00;;
21987;SDS011;11158;53.404;-1.510;2023-03-18T18:08:15;2.25;;;1.17;;
21987;SDS011;11158;53.404;-1.510;2023-03-18T18:11:09;5.65;;;1.77;;
21987;SDS011;11158;53.404;-1.510;2023-03-18T18:14:01;6.28;;;2.05;;
21987;SDS011;11158;53.404;-1.510;2023-03-18T18:17:01;6.55;;;1.92;;
21987;SDS011;11158;53.404;-1.510;2023-03-18T18:19:45;6.63;;;1.95;;
21987;SDS011;11158;53.404;-1.510;2023-03-18T18:22:29;7.47;;;2.15;;
21987;SDS011;11158;53.404;-1.510;2023-03-18T18:25:15;4.30;;;2.40;;
21987;SDS011;11158;53.404;-1.510;2023-03-18T18:28:04;6.63;;;2.70;;
21987;SDS011;11158;53.404;-1.510;2023-03-18T18:30:54;4.65;;;1.92;;
21987;SDS011;11158;53.404;-1.510;2023-03-18T18:33:39;4.20;;;1.77;;